Time;durP1;ratioP1;P1;durP2;ratioP2;P2;SDS_P1;SDS_P2;PMS_P1;PMS_P2;Temp;Humidity;BMP_temperature;BMP_pressure;BME280_temperature;BME280_humidity;BME280_pressure;Samples;Min_cycle;Max_cycle;Signal;HPM_P1;HPM_P2
2022/11/27 00:01:28;;;;;;;11.45;7.85;;;;;;;-9.83;89.18;103344.19;5014086;28;20030;-74
2022/11/27 00:03:56;;;;;;;17.80;9.20;;;;;;;-9.80;89.70;103336.50;5015859;28;20030;-73
2022/11/27 00:06:25;;;;;;;11.98;8.45;;;;;;;-9.64;89.01;103347.97;5016541;28;20474;-72
2022/11/27 00:08:51;;;;;;;12.13;7.85;;;;;;;-9.66;88.40;103339.34;5016786;28;20026;-71
2022/11/27 00:11:19;;;;;;;11.97;8.60;;;;;;;-9.69;89.32;103331.53;4998592;28;20545;-73
2022/11/27 00:13:46;;;;;;;13.77;7.85;;;;;;;-9.66;88.83;103330.72;5015172;28;20148;-73
2022/11/27 00:16:12;;;;;;;13.27;8.40;;;;;;;-9.66;88.57;103326.44;5015226;28;20029;-73
2022/11/27 00:18:38;;;;;;;9.32;7.10;;;;;;;-9.71;88.41;103326.34;5015649;28;20080;-74
2022/11/27 00:21:06;;;;;;;10.73;6.72;;;;;;;-9.79;88.46;103325.34;5015357;28;20049;-73
2022/11/27 00:23:33;;;;;;;14.35;9.25;;;;;;;-9.72;88.95;103331.50;5015402;28;20030;-72
2022/11/27 00:25:59;;;;;;;12.43;7.32;;;;;;;-9.77;88.33;103320.22;5015452;28;20465;-73
2022/11/27 00:28:24;;;;;;;13.27;8.23;;;;;;;-9.74;88.83;103313.41;5015734;28;20030;-73
2022/11/27 00:30:50;;;;;;;13.83;9.23;;;;;;;-9.72;88.06;103316.88;4997734;28;20381;-73
2022/11/27 00:33:16;;;;;;;11.10;8.27;;;;;;;-9.82;87.82;103312.41;4997958;28;20030;-73
2022/11/27 00:35:41;;;;;;;10.73;6.90;;;;;;;-9.68;89.22;103326.41;5015013;28;20037;-74
2022/11/27 00:38:07;;;;;;;13.07;7.43;;;;;;;-9.69;88.52;103318.66;5014118;28;20033;-73
2022/11/27 00:40:33;;;;;;;11.23;7.53;;;;;;;-9.71;89.06;103320.34;5015510;28;20033;-74
2022/11/27 00:43:00;;;;;;;13.57;8.38;;;;;;;-9.72;88.09;103323.75;5015057;28;20041;-73
2022/11/27 00:45:26;;;;;;;15.45;7.82;;;;;;;-9.80;88.56;103328.78;5013791;28;20030;-73
2022/11/27 00:47:52;;;;;;;10.50;7.80;;;;;;;-9.85;88.84;103317.47;5014807;28;20116;-73
2022/11/27 00:50:17;;;;;;;12.30;7.73;;;;;;;-9.93;88.60;103301.00;5015360;28;20025;-73
2022/11/27 00:52:43;;;;;;;13.57;7.70;;;;;;;-9.79;88.38;103322.78;5015178;28;20030;-74
2022/11/27 00:55:09;;;;;;;11.53;7.93;;;;;;;-9.85;88.48;103307.16;5014880;28;20075;-72
2022/11/27 00:57:34;;;;;;;15.37;7.80;;;;;;;-9.76;88.23;103321.97;5014756;28;20033;-72
2022/11/27 01:00:00;;;;;;;13.50;8.50;;;;;;;-9.77;88.11;103321.09;5014495;28;20026;-74
2022/11/27 01:02:25;;;;;;;11.97;7.53;;;;;;;-9.81;87.70;103319.31;5015163;28;20026;-73
2022/11/27 01:04:53;;;;;;;11.50;8.20;;;;;;;-9.85;88.00;103320.06;5013510;28;20049;-73
2022/11/27 01:07:18;;;;;;;11.93;7.88;;;;;;;-9.74;88.91;103323.72;5014920;28;20425;-73
2022/11/27 01:09:44;;;;;;;13.43;9.40;;;;;;;-9.82;87.97;103320.16;5017254;28;20029;-74
2022/11/27 01:12:09;;;;;;;13.37;8.30;;;;;;;-9.79;88.27;103317.63;5022480;28;20377;-73
2022/11/27 01:14:35;;;;;;;9.17;7.33;;;;;;;-9.72;88.29;103311.72;5016219;28;20497;-73
2022/11/27 01:17:01;;;;;;;13.67;7.70;;;;;;;-9.73;87.21;103306.53;5014782;28;20033;-74
2022/11/27 01:19:26;;;;;;;10.40;7.30;;;;;;;-9.78;87.93;103308.19;5014849;28;20030;-73
2022/11/27 01:21:52;;;;;;;10.17;7.20;;;;;;;-9.72;88.51;103314.31;5014644;28;20030;-73
2022/11/27 01:24:17;;;;;;;13.00;8.57;;;;;;;-9.68;88.12;103325.53;5014328;28;20079;-74
2022/11/27 01:26:43;;;;;;;8.30;7.33;;;;;;;-9.66;88.55;103307.53;5014530;28;20053;-74
2022/11/27 01:29:10;;;;;;;7.85;6.72;;;;;;;-9.53;88.20;103322.38;5014393;28;20401;-73
2022/11/27 01:31:35;;;;;;;13.65;9.43;;;;;;;-9.61;87.44;103322.22;5014982;28;20045;-74
2022/11/27 01:34:04;;;;;;;11.73;8.03;;;;;;;-9.65;87.89;103320.44;5031550;28;20026;-72
2022/11/27 01:36:31;;;;;;;11.25;6.47;;;;;;;-9.65;88.00;103315.28;5026385;28;20036;-72
2022/11/27 01:38:57;;;;;;;13.80;7.80;;;;;;;-9.62;87.44;103323.06;5014821;28;20033;-72
2022/11/27 01:41:26;;;;;;;10.32;6.60;;;;;;;-9.66;87.76;103307.53;5014215;28;20111;-72
2022/11/27 01:43:53;;;;;;;11.90;7.03;;;;;;;-9.63;87.67;103312.72;5013942;28;20022;-73
2022/11/27 01:46:28;;;;;;;13.68;7.43;;;;;;;-9.63;87.79;103323.03;5014420;28;20026;-72
2022/11/27 01:49:14;;;;;;;7.60;6.63;;;;;;;-9.74;87.22;103285.03;5014268;28;20495;-73
2022/11/27 01:51:48;;;;;;;13.93;8.27;;;;;;;-9.59;87.11;103311.94;5014139;28;20018;-73
2022/11/27 01:54:15;;;;;;;11.45;7.85;;;;;;;-9.72;87.63;103301.41;4996310;28;20025;-73
2022/11/27 01:56:44;;;;;;;8.18;7.13;;;;;;;-9.64;87.86;103311.84;5014091;28;20120;-73
2022/11/27 01:59:10;;;;;;;;;;;;;;;-9.54;88.16;103307.72;4996194;28;20377;-73
2022/11/27 02:01:35;;;;;;;13.57;8.03;;;;;;;-9.63;87.54;103305.84;5016231;28;19913;-72
2022/11/27 02:04:02;;;;;;;9.97;7.80;;;;;;;-9.72;87.54;103311.72;5017768;28;20112;-73
2022/11/27 02:06:30;;;;;;;12.15;8.25;;;;;;;-9.70;88.17;103312.63;5018077;28;20037;-73
2022/11/27 02:08:56;;;;;;;12.85;8.27;;;;;;;-9.59;87.99;103314.50;4999760;28;20045;-73
2022/11/27 02:11:33;;;;;;;13.00;8.00;;;;;;;-9.59;87.67;103311.94;5016574;28;20037;-73
2022/11/27 02:14:36;;;;;;;10.80;7.22;;;;;;;-9.63;87.22;103317.88;5013678;28;20029;-73
2022/11/27 02:17:43;;;;;;;11.57;8.00;;;;;;;-9.70;86.79;103316.91;5012831;28;20048;-72
2022/11/27 02:20:31;;;;;;;13.80;8.20;;;;;;;-9.79;87.84;103315.03;5004946;28;20068;-73
2022/11/27 02:23:10;;;;;;;11.32;6.82;;;;;;;-9.89;88.06;103319.97;5013413;28;20029;-73
2022/11/27 02:25:35;;;;;;;;;;;;;;;-9.94;88.84;103319.88;4979846;28;20037;-73
2022/11/27 02:28:11;;;;;;;13.40;7.97;;;;;;;-10.00;88.84;103322.34;4995475;28;19924;-74
2022/11/27 02:30:42;;;;;;;11.50;7.65;;;;;;;-10.08;88.87;103309.31;5013111;28;20108;-73
2022/11/27 02:33:11;;;;;;;15.55;8.13;;;;;;;-10.09;88.99;103304.13;5013067;28;20088;-73
2022/11/27 02:35:48;;;;;;;10.55;8.23;;;;;;;-10.05;88.93;103313.66;5012844;28;20034;-74
2022/11/27 02:38:19;;;;;;;15.98;8.45;;;;;;;-10.07;88.73;103315.34;5013036;28;20034;-72
2022/11/27 02:40:57;;;;;;;13.02;7.90;;;;;;;-10.05;89.51;103318.81;5013059;28;20057;-73
2022/11/27 02:43:29;;;;;;;10.95;7.15;;;;;;;-10.00;88.74;103314.63;5012790;28;20527;-72
2022/11/27 02:45:58;;;;;;;15.73;8.38;;;;;;;-9.99;88.67;103318.94;5012654;28;20038;-73
2022/11/27 02:48:30;;;;;;;11.63;6.97;;;;;;;-9.95;88.67;103313.00;5012888;28;20473;-73
2022/11/27 02:50:55;;;;;;;11.85;7.68;;;;;;;-9.84;88.59;103334.69;5012962;28;20034;-73
2022/11/27 02:53:27;;;;;;;9.10;7.37;;;;;;;-9.83;88.05;103330.41;5013911;28;20481;-72
2022/11/27 02:55:56;;;;;;;13.10;7.80;;;;;;;-9.86;88.01;103327.75;5022990;28;20026;-73
2022/11/27 02:58:26;;;;;;;11.65;7.32;;;;;;;-9.88;88.07;103312.28;5036953;28;20048;-72
2022/11/27 03:00:53;;;;;;;11.88;7.28;;;;;;;-9.82;88.20;103312.41;5019084;28;20029;-72
2022/11/27 03:03:23;;;;;;;11.85;7.10;;;;;;;-9.85;87.80;103317.47;5032799;28;20084;-73
2022/11/27 03:05:55;;;;;;;12.98;7.95;;;;;;;-9.87;87.60;103324.31;5007927;28;20124;-73
2022/11/27 03:08:37;;;;;;;11.85;8.45;;;;;;;-9.85;88.07;103316.59;4992777;28;20105;-74
2022/11/27 03:11:06;;;;;;;10.40;6.43;;;;;;;-10.01;87.44;103302.56;4992612;28;20505;-73
2022/11/27 03:13:53;;;;;;;;;;;;;;;-9.78;88.04;103329.66;4991814;28;20041;-73
2022/11/27 03:16:49;;;;;;;12.45;7.55;;;;;;;-9.83;87.88;103326.16;4993222;28;19910;-73
2022/11/27 03:19:35;;;;;;;10.73;7.50;;;;;;;-9.75;87.98;103323.69;4993302;28;20042;-73
2022/11/27 03:22:02;;;;;;;13.65;7.55;;;;;;;-9.74;87.31;103331.47;5014565;28;20253;-73
2022/11/27 03:24:29;;;;;;;12.55;7.72;;;;;;;-9.81;87.55;103323.59;5014917;28;20011;-74
2022/11/27 03:26:58;;;;;;;11.10;8.05;;;;;;;-9.85;87.73;103327.78;5016529;28;20094;-73
2022/11/27 03:29:37;;;;;;;17.20;9.60;;;;;;;-9.86;88.24;103323.47;5006013;28;20035;-73
2022/11/27 03:32:03;;;;;;;9.70;7.38;;;;;;;-9.83;87.58;103312.34;4993231;28;20030;-72
2022/11/27 03:34:30;;;;;;;14.13;8.60;;;;;;;-9.86;87.90;103310.59;4992511;28;20121;-72
2022/11/27 03:36:55;;;;;;;12.63;8.88;;;;;;;-9.80;88.01;103318.47;4993771;28;20487;-73
2022/11/27 03:39:22;;;;;;;29.73;10.80;;;;;;;-9.63;87.69;103328.19;4993598;28;20027;-73
2022/11/27 03:42:19;;;;;;;13.55;7.97;;;;;;;-9.63;87.18;103323.03;4993905;28;20116;-72
2022/11/27 03:45:15;;;;;;;15.10;7.93;;;;;;;-9.71;86.89;103328.94;4993764;28;20033;-72
2022/11/27 03:48:01;;;;;;;12.45;8.82;;;;;;;-9.77;87.76;103321.09;4993839;28;20405;-73
2022/11/27 03:50:45;;;;;;;14.02;9.00;;;;;;;-9.71;87.95;103325.50;4993708;28;20526;-72
2022/11/27 03:53:44;;;;;;;12.40;9.07;;;;;;;-9.66;87.58;103317.84;4994129;28;20037;-72
2022/11/27 03:56:18;;;;;;;10.05;8.23;;;;;;;-9.57;87.22;103320.56;4993981;28;20390;-73
2022/11/27 03:58:49;;;;;;;12.82;8.43;;;;;;;-9.59;87.00;103317.09;4993423;28;20113;-71
2022/11/27 04:01:18;;;;;;;10.50;7.97;;;;;;;-9.65;87.53;103324.72;4993475;28;20100;-73
2022/11/27 04:03:44;;;;;;;15.02;8.25;;;;;;;-9.65;87.38;103320.44;4992859;28;20115;-72
2022/11/27 04:06:12;;;;;;;12.97;8.13;;;;;;;-9.76;87.41;103302.19;5007636;28;20610;-73
2022/11/27 04:08:39;;;;;;;11.15;7.47;;;;;;;-9.63;87.49;103317.88;4993094;28;20065;-73
2022/11/27 04:11:04;;;;;;;16.55;8.23;;;;;;;-9.62;87.41;103327.38;4992733;28;20030;-73
2022/11/27 04:13:30;;;;;;;14.93;8.57;;;;;;;-9.66;87.29;103323.84;4992804;28;20481;-74
2022/11/27 04:15:59;;;;;;;15.93;8.27;;;;;;;-9.84;87.51;103311.47;4992363;28;20571;-73
2022/11/27 04:18:24;;;;;;;13.15;8.30;;;;;;;-9.84;87.83;103320.91;4992805;28;20509;-73
2022/11/27 04:20:51;;;;;;;13.98;8.35;;;;;;;-9.87;88.19;103321.75;4991740;28;20371;-73
2022/11/27 04:23:17;;;;;;;11.73;7.87;;;;;;;-9.81;87.95;103328.75;4996212;28;20113;-74
2022/11/27 04:25:42;;;;;;;15.00;7.73;;;;;;;-9.80;88.27;103325.31;5007593;28;20082;-73
2022/11/27 04:28:08;;;;;;;15.43;8.23;;;;;;;-9.80;87.88;103326.19;5015592;28;20060;-72
2022/11/27 04:30:34;;;;;;;14.47;8.60;;;;;;;-9.91;88.17;103307.06;5002030;28;20068;-72
2022/11/27 04:32:59;;;;;;;16.73;9.90;;;;;;;-9.75;88.11;103326.28;4998276;28;20042;-73
2022/11/27 04:35:25;;;;;;;14.13;9.43;;;;;;;-10.08;88.60;103283.56;4996282;28;20034;-74
2022/11/27 04:37:50;;;;;;;13.37;9.30;;;;;;;-9.89;88.22;103314.81;4995342;28;20030;-73
2022/11/27 04:40:16;;;;;;;13.27;8.27;;;;;;;-9.73;89.15;103317.72;4995802;28;20069;-74
2022/11/27 04:42:42;;;;;;;18.37;8.97;;;;;;;-9.49;88.39;103321.59;4995447;28;20433;-73
2022/11/27 04:45:08;;;;;;;14.67;8.00;;;;;;;-9.42;87.21;103319.16;4995285;28;20026;-73
2022/11/27 04:47:33;;;;;;;12.45;8.57;;;;;;;-9.37;86.98;103316.63;4995899;28;20044;-72
2022/11/27 04:49:59;;;;;;;12.63;7.80;;;;;;;-9.39;87.08;103319.19;4978153;28;20462;-72
2022/11/27 04:52:24;;;;;;;18.87;9.67;;;;;;;-9.56;87.33;103299.09;4995591;28;20022;-72
2022/11/27 04:54:50;;;;;;;15.57;8.83;;;;;;;-9.44;87.19;103320.84;4995706;28;20045;-72
2022/11/27 04:57:15;;;;;;;13.00;8.10;;;;;;;-9.49;87.33;103319.03;4995242;28;20034;-72
2022/11/27 04:59:41;;;;;;;14.17;9.57;;;;;;;-9.57;87.52;103305.09;4995209;28;20121;-72
2022/11/27 05:02:06;;;;;;;21.03;9.67;;;;;;;-9.44;87.28;103335.44;4995511;28;20030;-75
2022/11/27 05:04:32;;;;;;;17.63;9.00;;;;;;;-9.51;88.16;103321.56;5000510;28;20060;-73
2022/11/27 05:06:59;;;;;;;15.33;8.77;;;;;;;-9.48;87.74;103315.59;5014598;28;20037;-73
2022/11/27 05:09:25;;;;;;;16.70;8.32;;;;;;;-9.37;87.73;103312.34;5014356;28;20040;-75
2022/11/27 05:11:50;;;;;;;18.77;9.00;;;;;;;-9.45;87.39;103295.00;4996918;28;20021;-75
2022/11/27 05:14:20;;;;;;;14.50;9.10;;;;;;;-9.16;87.59;103329.03;5014113;28;20041;-73
2022/11/27 05:16:48;;;;;;;18.10;8.10;;;;;;;-9.20;87.12;103310.06;5014776;28;20026;-74
2022/11/27 05:19:16;;;;;;;14.70;11.20;;;;;;;-9.14;86.28;103322.19;5014423;28;20021;-73
2022/11/27 05:22:06;;;;;;;20.27;10.40;;;;;;;-9.04;86.99;103325.78;5014363;28;20428;-74
2022/11/27 05:24:32;;;;;;;14.43;9.47;;;;;;;-9.07;86.62;103322.31;5014043;28;20144;-74
2022/11/27 05:26:57;;;;;;;15.57;8.13;;;;;;;-9.15;86.93;103303.25;5013986;28;20028;-74
2022/11/27 05:29:24;;;;;;;15.23;8.80;;;;;;;-9.15;87.11;103326.50;5014219;28;20022;-73
2022/11/27 05:31:50;;;;;;;15.32;8.93;;;;;;;-9.10;87.05;103319.69;5014658;28;20037;-74
2022/11/27 05:34:16;;;;;;;14.53;8.43;;;;;;;-8.89;86.84;103326.03;5013041;28;20038;-73
2022/11/27 05:36:42;;;;;;;16.27;10.23;;;;;;;-8.92;86.37;103326.00;5012713;28;20307;-73
2022/11/27 05:39:09;;;;;;;13.93;8.77;;;;;;;-9.06;86.59;103318.00;5012743;28;20083;-73
2022/11/27 05:41:35;;;;;;;15.23;9.10;;;;;;;-9.11;87.41;103320.53;5014460;28;20025;-74
2022/11/27 05:44:01;;;;;;;14.13;8.63;;;;;;;-9.07;87.41;103326.59;5014198;28;20484;-73
2022/11/27 05:46:27;;;;;;;16.00;8.43;;;;;;;-9.00;87.03;103319.81;5013933;28;20045;-73
2022/11/27 05:48:53;;;;;;;13.13;7.83;;;;;;;-8.92;87.08;103329.44;5013704;28;20519;-74
2022/11/27 05:51:18;;;;;;;16.47;10.10;;;;;;;-8.93;86.98;103321.66;5012592;28;20037;-74
2022/11/27 05:53:44;;;;;;;14.27;9.50;;;;;;;-8.86;87.17;103332.09;5013381;28;20042;-74
2022/11/27 05:56:14;;;;;;;14.63;9.18;;;;;;;-8.89;87.04;103323.44;5014004;28;20121;-74
2022/11/27 05:58:42;;;;;;;14.38;9.80;;;;;;;-8.92;87.41;103329.44;5013808;28;20454;-74
2022/11/27 06:01:09;;;;;;;15.95;9.20;;;;;;;-9.05;87.67;103327.50;5013456;28;20389;-74
2022/11/27 06:03:34;;;;;;;17.20;9.65;;;;;;;-8.94;87.57;103325.09;5012116;28;20033;-73
2022/11/27 06:06:27;;;;;;;15.63;11.83;;;;;;;-8.76;87.81;103333.09;5014174;28;20050;-74
2022/11/27 06:08:53;;;;;;;11.07;8.75;;;;;;;-8.76;87.05;103330.53;5012162;28;20046;-76
2022/11/27 06:11:22;;;;;;;18.43;10.77;;;;;;;-8.78;86.96;103334.81;5013678;28;20373;-75
2022/11/27 06:13:49;;;;;;;13.68;8.68;;;;;;;-8.81;87.02;103340.78;5014850;28;20040;-74
2022/11/27 06:16:18;;;;;;;20.20;11.32;;;;;;;-8.85;87.25;103327.81;5015409;28;20022;-74
2022/11/27 06:18:44;;;;;;;14.55;10.52;;;;;;;-8.88;87.42;103332.94;5020544;28;20022;-74
2022/11/27 06:21:12;;;;;;;17.88;8.75;;;;;;;-8.81;87.98;103334.75;5022978;28;20044;-74
2022/11/27 06:23:40;;;;;;;18.65;9.65;;;;;;;-8.87;87.58;103329.50;5016168;28;20030;-74
2022/11/27 06:26:26;;;;;;;19.63;10.07;;;;;;;-8.81;87.77;103329.59;5013101;28;20088;-73
2022/11/27 06:28:53;;;;;;;20.42;8.90;;;;;;;-8.90;87.97;103329.47;5014040;28;20022;-73
2022/11/27 06:31:26;;;;;;;22.80;10.25;;;;;;;-8.75;88.46;103340.00;5013132;28;20121;-74
2022/11/27 06:33:53;;;;;;;15.65;8.75;;;;;;;-8.70;88.26;103338.34;5012926;28;20025;-74
2022/11/27 06:36:22;;;;;;;18.95;9.60;;;;;;;-8.91;87.22;103312.22;5013737;28;20026;-74
2022/11/27 06:38:48;;;;;;;;;;;;;;;-8.67;87.79;103347.88;5013286;28;20038;-74
2022/11/27 06:41:16;;;;;;;12.80;8.23;;;;;;;-8.68;88.08;103347.00;5012318;28;19917;-74
2022/11/27 06:43:42;;;;;;;20.40;8.82;;;;;;;-8.56;88.28;103347.19;5011010;28;20434;-73
2022/11/27 06:46:11;;;;;;;16.77;10.20;;;;;;;-8.56;87.38;103347.19;5012065;28;20037;-74
2022/11/27 06:48:36;;;;;;;32.85;11.45;;;;;;;-8.57;87.73;103345.47;5011256;28;20559;-74
2022/11/27 06:51:04;;;;;;;17.37;11.37;;;;;;;-8.49;87.93;103358.47;5012479;28;20108;-73
2022/11/27 06:53:32;;;;;;;22.70;11.23;;;;;;;-8.57;86.86;103348.03;4994787;28;20034;-74
2022/11/27 06:55:57;;;;;;;16.48;9.70;;;;;;;-8.65;88.04;103349.66;5012528;28;20038;-74
2022/11/27 06:58:23;;;;;;;20.20;11.03;;;;;;;-8.54;88.78;103350.66;5010928;28;20091;-75
2022/11/27 07:00:49;;;;;;;17.17;8.77;;;;;;;-8.54;88.56;103347.22;5012603;28;20103;-74
2022/11/27 07:03:14;;;;;;;16.97;10.23;;;;;;;-8.47;88.21;103349.91;5012205;28;20109;-72
2022/11/27 07:05:40;;;;;;;14.77;9.80;;;;;;;-8.45;87.58;103353.38;5012954;28;20057;-72
2022/11/27 07:08:06;;;;;;;18.63;11.47;;;;;;;-8.61;87.66;103317.84;5013098;28;20037;-75
2022/11/27 07:10:33;;;;;;;15.47;10.60;;;;;;;-8.47;88.34;103336.97;5012308;28;20091;-70
2022/11/27 07:12:59;;;;;;;17.83;8.82;;;;;;;-8.43;88.21;103349.09;5012020;28;20025;-71
2022/11/27 07:15:25;;;;;;;16.83;9.57;;;;;;;-8.46;88.24;103336.13;5008785;28;20033;-75
2022/11/27 07:17:50;;;;;;;15.63;11.97;;;;;;;-8.43;88.27;103336.16;4991445;28;20045;-75
2022/11/27 07:20:16;;;;;;;17.53;9.83;;;;;;;-8.40;89.27;103347.41;4992602;28;20133;-77
2022/11/27 07:22:41;;;;;;;14.77;10.20;;;;;;;-8.42;88.67;103352.53;4990708;28;20382;-76
2022/11/27 07:25:08;;;;;;;17.40;12.32;;;;;;;-8.55;88.69;103336.00;4987335;28;20089;-75
2022/11/27 07:27:34;;;;;;;14.98;9.82;;;;;;;-8.57;89.92;103324.78;4990243;28;20022;-74
2022/11/27 07:29:59;;;;;;;20.37;9.83;;;;;;;-8.45;89.77;103335.28;4979828;28;20053;-73
2022/11/27 07:32:25;;;;;;;16.13;9.70;;;;;;;-8.34;90.14;103342.34;4973616;28;20026;-75
2022/11/27 07:34:50;;;;;;;18.50;11.30;;;;;;;-8.27;88.94;103333.78;4972674;28;20037;-73
2022/11/27 07:37:16;;;;;;;15.77;11.17;;;;;;;-8.18;88.47;103339.03;4972985;28;20031;-72
2022/11/27 07:39:44;;;;;;;22.73;10.20;;;;;;;-8.11;89.00;103338.25;4972987;28;20081;-73
2022/11/27 07:42:10;;;;;;;19.88;11.25;;;;;;;-8.11;88.59;103341.72;4972928;28;20030;-78
2022/11/27 07:44:36;;;;;;;21.07;12.00;;;;;;;-8.03;88.63;103352.19;4973660;28;20506;-74
2022/11/27 07:47:01;;;;;;;27.03;12.80;;;;;;;-8.00;88.70;103344.47;4973283;28;20027;-74
2022/11/27 07:49:27;;;;;;;21.37;9.83;;;;;;;-8.04;88.28;103327.16;4972879;28;20459;-77
2022/11/27 07:51:52;;;;;;;14.50;9.37;;;;;;;-7.98;88.90;103347.94;4973151;28;20023;-75
2022/11/27 07:54:18;;;;;;;22.87;10.93;;;;;;;-7.98;89.58;103347.94;4972580;28;20489;-73
2022/11/27 07:56:43;;;;;;;17.43;11.10;;;;;;;-8.04;89.52;103337.50;4973333;28;20061;-71
2022/11/27 07:59:08;;;;;;;18.40;10.23;;;;;;;-8.01;90.41;103337.56;4977926;28;20023;-69
2022/11/27 08:01:34;;;;;;;16.27;12.53;;;;;;;-7.97;90.13;103328.97;4976184;28;20471;-69
2022/11/27 08:04:00;;;;;;;18.33;10.57;;;;;;;-7.81;89.73;103340.34;4976121;28;20031;-81
2022/11/27 08:06:28;;;;;;;17.88;9.75;;;;;;;-7.66;89.13;103348.28;4979126;28;20479;-77
2022/11/27 08:08:57;;;;;;;17.92;10.82;;;;;;;-7.64;88.78;103356.06;4943613;28;20045;-79
2022/11/27 08:11:24;;;;;;;20.60;10.05;;;;;;;-7.59;89.25;103352.66;4976865;28;20042;-78
2022/11/27 08:13:50;;;;;;;14.27;9.20;;;;;;;-7.76;88.66;103341.28;4977411;28;20075;-78
2022/11/27 08:16:15;;;;;;;13.10;9.50;;;;;;;-7.78;88.90;103349.88;4977277;28;20173;-77
2022/11/27 08:18:41;;;;;;;12.70;8.60;;;;;;;-7.82;89.03;103351.53;4960021;28;20027;-74
2022/11/27 08:21:06;;;;;;;13.27;9.03;;;;;;;-7.81;89.84;103351.59;4976526;28;20053;-75
2022/11/27 08:23:32;;;;;;;17.47;9.73;;;;;;;-7.67;89.83;103363.81;4976404;28;20026;-75
2022/11/27 08:25:59;;;;;;;13.93;9.73;;;;;;;-7.50;90.20;103367.44;4976791;28;20031;-81
2022/11/27 08:28:24;;;;;;;19.70;10.90;;;;;;;-7.35;89.73;103371.91;4977497;28;20030;-81
2022/11/27 08:30:57;;;;;;;13.73;9.73;;;;;;;-7.37;88.38;103377.06;4979799;28;20374;-80
2022/11/27 08:33:23;;;;;;;16.98;9.93;;;;;;;-7.45;88.59;103376.13;4961012;28;20035;-76
2022/11/27 08:35:49;;;;;;;17.03;10.57;;;;;;;-7.53;89.62;103377.75;4978327;28;20042;-76
2022/11/27 08:38:14;;;;;;;13.90;9.27;;;;;;;-7.46;89.94;103378.69;5000930;28;20033;-80
2022/11/27 08:40:40;;;;;;;15.00;9.70;;;;;;;-7.60;89.56;103356.13;4990222;28;20037;-81
2022/11/27 08:43:05;;;;;;;17.10;10.63;;;;;;;-7.48;89.21;103370.91;4985408;28;20030;-79
2022/11/27 08:45:33;;;;;;;12.17;8.37;;;;;;;-7.43;88.97;103373.56;4995488;28;20654;-79
2022/11/27 08:47:59;;;;;;;15.70;10.15;;;;;;;-7.40;89.90;103364.09;4994419;28;20112;-75
2022/11/27 08:50:24;;;;;;;14.80;9.30;;;;;;;-7.37;89.64;103356.34;4992193;28;20097;-81
2022/11/27 08:52:50;;;;;;;18.57;12.40;;;;;;;-7.33;89.38;103365.88;4989887;28;20493;-79
2022/11/27 08:55:15;;;;;;;14.10;10.70;;;;;;;-7.47;88.99;103357.13;4986595;28;20406;-82
2022/11/27 08:57:41;;;;;;;21.67;11.50;;;;;;;-7.42;89.77;103370.97;4975933;28;20036;-77
2022/11/27 09:00:07;;;;;;;17.17;10.37;;;;;;;-7.46;90.54;103369.22;4993626;28;20034;-77
2022/11/27 09:02:33;;;;;;;20.85;9.70;;;;;;;-7.48;90.60;103350.22;4967440;28;20065;-79
2022/11/27 09:05:02;;;;;;;14.17;9.27;;;;;;;-7.38;90.95;103362.38;4991372;28;20471;-77
2022/11/27 09:07:29;;;;;;;15.57;10.45;;;;;;;-7.46;90.53;103358.00;4990294;28;20312;-81
2022/11/27 09:09:55;;;;;;;18.08;10.13;;;;;;;-7.42;91.19;103370.97;4989229;28;20038;-78
2022/11/27 09:12:21;;;;;;;14.97;8.90;;;;;;;-7.39;91.04;103359.78;4987474;28;20365;-79
2022/11/27 09:14:46;;;;;;;17.70;10.77;;;;;;;-7.42;90.61;103352.84;4981202;28;20466;-77
2022/11/27 09:17:12;;;;;;;18.20;10.87;;;;;;;-7.39;91.19;103345.13;4977996;28;20023;-78
2022/11/27 09:19:37;;;;;;;18.33;12.03;;;;;;;-7.38;91.06;103356.34;5004408;28;20025;-81
2022/11/27 09:22:03;;;;;;;14.23;9.43;;;;;;;-7.30;90.87;103359.88;4991463;28;20022;-74
2022/11/27 09:24:28;;;;;;;14.00;8.87;;;;;;;-7.37;91.62;103348.59;4977202;28;20045;-78
2022/11/27 09:26:55;;;;;;;13.82;9.23;;;;;;;-7.33;91.41;103350.34;4991355;28;20449;-80
2022/11/27 09:29:21;;;;;;;16.97;10.40;;;;;;;-7.25;91.68;103363.34;4991398;28;20078;-78
2022/11/27 09:31:47;;;;;;;14.00;9.77;;;;;;;-7.29;91.86;103357.28;5003956;28;20029;-78
2022/11/27 09:34:13;;;;;;;19.27;10.83;;;;;;;-7.29;92.06;103352.09;4993093;28;20029;-78
2022/11/27 09:36:39;;;;;;;17.42;12.35;;;;;;;-7.25;92.09;103355.59;4998712;28;20103;-79
2022/11/27 09:39:04;;;;;;;18.73;10.17;;;;;;;-7.18;91.81;103365.19;4989740;28;20121;-77
2022/11/27 09:41:47;;;;;;;16.87;9.57;;;;;;;-7.14;92.41;103371.25;4996213;28;20036;-80
2022/11/27 09:44:35;;;;;;;18.33;8.75;;;;;;;-7.04;92.06;103375.63;4982382;28;20026;-79
2022/11/27 09:47:20;;;;;;;14.88;9.68;;;;;;;-6.93;92.07;103361.94;4991592;28;20521;-82
2022/11/27 09:49:48;;;;;;;17.35;10.43;;;;;;;-6.81;91.50;103381.88;4998107;28;20037;-79
2022/11/27 09:52:24;;;;;;;16.13;11.38;;;;;;;-6.88;90.26;103369.75;4995045;28;20478;-77
2022/11/27 09:54:56;;;;;;;19.05;10.45;;;;;;;-6.77;91.04;103377.59;4993816;28;20137;-79
2022/11/27 09:57:40;;;;;;;15.00;10.48;;;;;;;-6.63;91.17;103376.84;4992040;28;20044;-77
2022/11/27 10:00:13;;;;;;;21.63;11.25;;;;;;;-6.56;91.06;103368.25;4998136;28;20026;-73
2022/11/27 10:02:41;;;;;;;16.13;10.93;;;;;;;-6.48;90.97;103375.22;4985019;28;20415;-77
2022/11/27 10:05:38;;;;;;;18.27;10.10;;;;;;;-6.54;90.42;103376.03;4995808;28;20070;-75
2022/11/27 10:08:14;;;;;;;14.25;9.70;;;;;;;-6.55;90.47;103369.13;5000060;28;20076;-78
2022/11/27 10:10:51;;;;;;;17.90;9.68;;;;;;;-6.60;90.41;103361.31;4996796;28;20473;-76
2022/11/27 10:13:53;;;;;;;15.65;10.18;;;;;;;-6.61;90.34;103375.13;4989962;28;20133;-77
2022/11/27 10:16:35;;;;;;;14.85;9.63;;;;;;;-6.65;90.45;103367.31;4981977;28;20496;-78
2022/11/27 10:19:31;;;;;;;17.58;10.07;;;;;;;-6.67;91.91;103369.88;4999528;28;20378;-79
2022/11/27 10:22:08;;;;;;;14.82;9.90;;;;;;;-6.61;91.57;103367.38;4992211;28;20069;-77
2022/11/27 10:24:49;;;;;;;16.15;10.20;;;;;;;-6.51;91.30;103363.09;4999098;28;20049;-77
2022/11/27 10:27:42;;;;;;;14.43;9.82;;;;;;;-6.57;91.59;103353.56;4999227;28;20085;-77
2022/11/27 10:30:19;;;;;;;14.77;10.38;;;;;;;-6.65;91.84;103365.59;5004128;28;20359;-73
2022/11/27 10:32:48;;;;;;;15.70;10.55;;;;;;;-7.05;92.07;103291.03;5000386;28;20038;-76
2022/11/27 10:35:18;;;;;;;16.10;11.75;;;;;;;-6.59;92.42;103351.81;5000005;28;20521;-77
2022/11/27 10:38:09;;;;;;;17.45;11.80;;;;;;;-6.46;92.09;103358.81;4993717;28;20026;-73
2022/11/27 10:40:51;;;;;;;15.98;10.70;;;;;;;-6.44;91.77;103358.81;4998223;28;20112;-77
2022/11/27 10:43:22;;;;;;;19.85;11.32;;;;;;;-6.45;91.83;103351.88;5002807;28;20049;-77
2022/11/27 10:46:07;;;;;;;15.60;10.10;;;;;;;-6.46;92.33;103363.97;5001824;28;20034;-76
2022/11/27 10:48:32;;;;;;;16.25;10.95;;;;;;;-6.48;92.48;103362.25;5004233;28;20021;-75
2022/11/27 10:50:59;;;;;;;12.80;9.60;;;;;;;-6.47;92.01;103356.19;5004215;28;20034;-77
2022/11/27 10:53:34;;;;;;;18.05;11.60;;;;;;;-6.62;92.89;103354.38;5006746;28;20022;-76
2022/11/27 10:56:14;;;;;;;19.65;11.43;;;;;;;-6.57;93.50;103369.13;4998457;28;20170;-76
2022/11/27 10:58:51;;;;;;;16.92;12.13;;;;;;;-6.57;93.62;103361.34;4998642;28;20027;-74
2022/11/27 11:01:21;;;;;;;20.50;11.30;;;;;;;-6.50;93.87;103366.56;5000449;28;20026;-74
2022/11/27 11:03:47;;;;;;;15.70;10.98;;;;;;;-6.42;93.84;103359.69;4992930;28;20469;-79
2022/11/27 11:06:21;;;;;;;19.43;11.80;;;;;;;-6.36;93.90;103372.69;4991985;28;20066;-74
2022/11/27 11:08:48;;;;;;;18.58;12.55;;;;;;;-6.40;93.30;103369.19;4992748;28;20430;-75
2022/11/27 11:11:24;;;;;;;14.75;10.38;;;;;;;-6.34;93.58;103379.63;4992895;28;20405;-75
2022/11/27 11:13:50;;;;;;;14.88;10.88;;;;;;;-6.32;93.61;103366.69;4992703;28;20430;-75
2022/11/27 11:16:20;;;;;;;19.43;11.53;;;;;;;-6.18;93.02;103370.19;4991957;28;20034;-72
2022/11/27 11:18:52;;;;;;;18.38;13.02;;;;;;;-6.21;92.50;103353.75;4992562;28;20030;-79
2022/11/27 11:21:25;;;;;;;18.50;11.07;;;;;;;-6.04;92.45;103378.94;4994939;28;20121;-77
2022/11/27 11:24:10;;;;;;;16.63;11.32;;;;;;;-6.11;91.70;103360.72;4992752;28;20105;-75
2022/11/27 11:26:48;;;;;;;16.95;11.13;;;;;;;-6.03;92.24;103369.41;4992442;28;20034;-77
2022/11/27 11:29:36;;;;;;;17.55;11.10;;;;;;;-6.04;91.60;103378.94;4992646;28;20539;-78